Latest Weather Observations for Broome Port

IDW60801

Issued at 8:05 pm WST Wednesday 23 April 2014 (issued every 30 minutes, with the page automatically refreshed every 10 minutes)

About weather observations | Map of weather stations | Latest weather observations for WA | Other Formats
Station Details ID: 003102 Name: BROOME NTC AWS Lat: -18.00 Lon: 122.22 Height: 0.0 m
Data from the previous 72 hours. | See also: Recent months for locations in Western Australia
Date/Time
WST
Temp
°C
App
Temp
°C
Dew
Point
Rel
Hum
%
Delta-T
°C
Wind Press
QNH
hPa
Press
MSL
hPa
Rain
since 9 am
mm
Dir
 
Spd
km/h
Gust
km/h
Spd
kts
Gust
kts
23/08:00pm 29.3 - - - - SW 20 24 11 13 1009.5 1009.4 -
23/07:30pm 29.5 - - - - WSW 20 22 11 12 1009.2 - -
23/07:00pm 29.5 - - - - WSW 19 22 10 12 1008.9 1008.8 -
23/06:30pm 29.6 - - - - W 20 24 11 13 1008.5 - -
23/06:00pm 29.7 - - - - W 17 22 9 12 1008.1 1008.0 -
23/05:30pm 29.9 - - - - W 20 24 11 13 1007.6 - -
23/05:00pm 30.4 - - - - W 19 22 10 12 1007.2 1007.1 -
23/04:30pm 30.8 - - - - WNW 19 22 10 12 1006.9 - -
23/04:00pm 31.1 - - - - W 11 17 6 9 1006.7 1006.6 -
23/03:30pm 31.4 - - - - W 9 15 5 8 1006.8 - -
23/03:00pm 32.3 - - - - W 7 11 4 6 1006.7 1006.6 -
23/02:30pm 33.2 - - - - WSW 6 11 3 6 1006.8 - -
23/02:00pm 33.0 - - - - SW 7 9 4 5 1007.0 1006.9 -
23/01:30pm 33.4 - - - - SW 7 9 4 5 1007.3 - -
23/01:00pm 32.8 - - - - SW 4 7 2 4 1007.7 1007.6 -
23/12:30pm 32.4 - - - - CALM 0 4 0 2 1008.3 - -
23/12:00pm 32.2 - - - - CALM 0 0 0 0 1008.8 1008.7 -
23/11:30am 31.6 - - - - CALM 0 0 0 0 1009.4 - -
23/11:00am 31.0 - - - - W 2 7 1 4 1010.0 1009.9 -
23/10:30am 29.4 - - - - W 2 6 1 3 1010.5 - -
23/10:00am 28.7 - - - - W 2 7 1 4 1010.7 1010.6 -
23/09:30am 27.9 - - - - W 2 6 1 3 1011.0 - -
23/09:00am 27.1 - - - - NW 2 6 1 3 1011.1 1011.0 -
23/08:30am 27.1 - - - - NW 2 6 1 3 1011.1 - -
23/08:00am 26.8 - - - - WNW 2 6 1 3 1011.0 1010.9 -
23/07:30am 25.8 - - - - W 2 6 1 3 1010.9 - -
23/07:00am 25.8 - - - - WSW 2 7 1 4 1010.8 1010.7 -
23/06:30am 27.1 - - - - WSW 4 7 2 4 1010.6 - -
23/06:00am 27.0 - - - - W 2 6 1 3 1010.3 1010.2 -
23/05:30am 26.5 - - - - WSW 2 6 1 3 1010.1 - -
23/05:00am 27.4 - - - - SW 4 9 2 5 1009.8 1009.7 -
23/04:30am 27.7 - - - - SW 9 15 5 8 1009.8 - -
23/04:00am 27.9 - - - - SW 13 19 7 10 1009.7 1009.6 -
23/03:30am 27.3 - - - - SSW 7 13 4 7 1009.8 - -
23/03:00am 27.6 - - - - SW 11 19 6 10 1009.9 1009.8 -
23/02:30am 27.9 - - - - SSW 17 20 9 11 1010.0 - -
23/02:00am 27.7 - - - - SW 19 22 10 12 1010.0 1009.9 -
23/01:30am 28.2 - - - - SW 13 15 7 8 1010.1 - -
23/01:00am 28.5 - - - - SSW 9 13 5 7 1010.5 1010.4 -
23/12:30am 28.4 - - - - SW 4 7 2 4 1010.8 - -
23/12:00am 28.0 - - - - SSW 9 13 5 7 1011.0 1010.9 -
 
Date/Time
WST
Temp
°C
App
Temp
°C
Dew
Point
Rel
Hum
%
Delta-T
°C
Wind Press
QNH
hPa
Press
MSL
hPa
Rain
since 9 am
mm
Dir
 
Spd
km/h
Gust
km/h
Spd
kts
Gust
kts
22/11:30pm 28.9 - - - - SW 11 15 6 8 1011.0 - -
22/11:00pm 29.0 - - - - SW 13 17 7 9 1011.0 1010.9 -
22/10:30pm 29.1 - - - - WSW 17 20 9 11 1010.9 - -
22/10:00pm 29.2 - - - - SW 17 19 9 10 1010.8 1010.7 -
22/09:30pm 29.4 - - - - SW 19 24 10 13 1010.9 - -
22/09:00pm 29.4 - - - - SW 20 22 11 12 1010.8 1010.7 -
22/08:30pm 29.6 - - - - SW 20 24 11 13 1010.7 - -
22/08:00pm 29.7 - - - - SW 20 26 11 14 1010.5 1010.4 -
22/07:30pm 29.7 - - - - WSW 20 22 11 12 1010.2 - -
22/07:00pm 29.6 - - - - WSW 20 24 11 13 1009.8 1009.7 -
22/06:30pm 29.7 - - - - WSW 20 22 11 12 1009.6 - -
22/06:00pm 29.6 - - - - W 17 20 9 11 1009.3 1009.2 -
22/05:30pm 29.6 - - - - W 17 20 9 11 1008.9 - -
22/05:00pm 29.9 - - - - W 17 22 9 12 1008.6 1008.5 -
22/04:30pm 30.1 - - - - W 19 22 10 12 1008.3 - -
22/04:00pm 30.1 - - - - W 20 24 11 13 1008.1 1008.0 -
22/03:30pm 30.3 - - - - WNW 20 24 11 13 1008.0 - -
22/03:00pm 30.3 - - - - W 20 24 11 13 1008.0 1007.9 -
22/02:30pm 30.5 - - - - W 19 22 10 12 1008.2 - -
22/02:00pm 30.1 - - - - WNW 17 20 9 11 1008.5 1008.4 -
22/01:30pm 30.4 - - - - WNW 15 17 8 9 1008.9 - -
22/01:00pm 30.2 - - - - W 15 17 8 9 1009.3 1009.2 -
22/12:30pm 29.9 - - - - W 13 17 7 9 1009.7 - -
22/12:00pm 30.4 - - - - WSW 11 13 6 7 1010.1 1010.0 -
22/11:30am 30.4 - - - - WSW 9 11 5 6 1010.6 - -
22/11:00am 29.9 - - - - SW 7 9 4 5 1011.2 1011.1 -
22/10:30am 29.3 - - - - SSW 11 13 6 7 1011.8 - -
22/10:00am 29.1 - - - - SSW 13 19 7 10 1012.0 1011.9 -
22/09:30am 28.9 - - - - SSW 13 17 7 9 1012.4 - -
22/09:00am 27.9 - - - - SSW 17 19 9 10 1012.5 1012.4 -
22/08:30am 27.7 - - - - SSW 13 15 7 8 1012.3 - -
22/08:00am 27.4 - - - - SSW 15 17 8 9 1012.0 1011.9 -
22/07:30am 26.6 - - - - S 17 20 9 11 1012.1 - -
22/07:00am 26.0 - - - - S 15 17 8 9 1011.8 1011.7 -
22/06:30am 25.6 - - - - S 20 26 11 14 1011.6 - -
22/06:00am 28.8 - - - - WSW 15 19 8 10 1011.2 1011.1 -
22/05:30am 28.2 - - - - W 13 15 7 8 1011.0 - -
22/05:00am 28.1 - - - - W 13 17 7 9 1010.7 1010.6 -
22/04:30am 28.0 - - - - W 11 15 6 8 1010.5 - -
22/04:00am 27.9 - - - - WNW 9 13 5 7 1010.5 1010.4 -
22/03:30am 28.0 - - - - WNW 9 11 5 6 1010.5 - -
22/03:00am 27.6 - - - - NW 7 9 4 5 1010.5 1010.4 -
22/02:30am 27.7 - - - - NW 7 9 4 5 1010.6 - -
22/02:00am 27.9 - - - - NW 9 11 5 6 1010.8 1010.7 -
22/01:30am 27.6 - - - - NW 7 9 4 5 1011.1 - -
22/01:00am 27.9 - - - - NNW 9 11 5 6 1011.4 1011.3 -
22/12:30am 27.4 - - - - NNW 6 6 3 3 1011.8 - -
22/12:00am 27.3 - - - - N 6 7 3 4 1012.1 1012.0 -
 
Date/Time
WST
Temp
°C
App
Temp
°C
Dew
Point
Rel
Hum
%
Delta-T
°C
Wind Press
QNH
hPa
Press
MSL
hPa
Rain
since 9 am
mm
Dir
 
Spd
km/h
Gust
km/h
Spd
kts
Gust
kts
21/11:30pm 27.4 - - - - N 6 9 3 5 1012.4 - -
21/11:00pm 28.3 - - - - NNW 6 7 3 4 1012.2 1012.1 -
21/10:30pm 28.3 - - - - NW 9 11 5 6 1012.0 - -
21/10:00pm 28.4 - - - - NW 7 7 4 4 1012.1 1012.0 -
21/09:30pm 28.7 - - - - WNW 11 13 6 7 1011.9 - -
21/09:00pm 28.7 - - - - NW 11 13 6 7 1012.0 1011.9 -
21/08:30pm 28.8 - - - - WNW 7 9 4 5 1011.7 - -
21/08:00pm 29.1 - - - - WNW 13 15 7 8 1011.4 1011.3 -
21/07:30pm 29.0 - - - - WNW 11 17 6 9 1011.0 - -
21/07:00pm 28.8 - - - - NW 15 20 8 11 1010.6 1010.5 -
21/06:30pm 28.8 - - - - NW 17 22 9 12 1010.2 - -
21/06:00pm 29.0 - - - - NW 19 24 10 13 1009.7 1009.6 -
21/05:30pm 29.3 - - - - WNW 17 20 9 11 1009.3 - -
21/05:00pm 29.6 - - - - WNW 20 24 11 13 1009.0 1008.9 -
21/04:30pm 30.1 - - - - WNW 20 24 11 13 1008.7 - -
21/04:00pm 30.4 - - - - WNW 17 20 9 11 1008.5 1008.4 -
21/03:30pm 31.3 - - - - WNW 17 19 9 10 1008.4 - -
21/03:00pm 31.3 - - - - WNW 15 19 8 10 1008.4 1008.3 -
21/02:30pm 31.0 - - - - WNW 17 20 9 11 1008.5 - -
21/02:00pm 31.3 - - - - WNW 15 17 8 9 1008.5 1008.4 -
21/01:30pm 30.5 - - - - WNW 11 13 6 7 1008.7 - -
21/01:00pm 30.2 - - - - W 9 11 5 6 1009.0 1008.9 -
21/12:30pm 30.5 - - - - W 6 7 3 4 1009.4 - -
21/12:00pm 29.7 - - - - SW 6 7 3 4 1009.7 1009.6 -
21/11:30am 29.2 - - - - S 2 6 1 3 1010.3 - -
21/11:00am 29.5 - - - - CALM 0 0 0 0 1010.6 1010.5 -
21/10:30am 28.1 - - - - ESE 2 4 1 2 1010.9 - -
21/10:00am 27.0 - - - - ESE 6 7 3 4 1011.2 1011.1 -
21/09:30am 26.2 - - - - ESE 9 15 5 8 1011.5 - -
21/09:00am 25.6 - - - - ESE 15 17 8 9 1011.6 1011.5 -
21/08:30am 24.4 - - - - ESE 13 17 7 9 1011.5 - -
21/08:00am 24.6 - - - - ESE 13 17 7 9 1011.3 1011.2 -
21/07:30am 25.6 - - - - ESE 11 15 6 8 1011.2 - -
21/07:00am 25.6 - - - - SE 9 13 5 7 1011.1 1011.0 -
21/06:30am 25.5 - - - - SE 11 15 6 8 1010.9 - -
21/06:00am 24.8 - - - - ESE 11 15 6 8 1010.7 1010.6 -
21/05:30am 24.6 - - - - E 11 15 6 8 1010.3 - -
21/05:00am 26.8 - - - - E 9 13 5 7 1010.1 1010.0 -
21/04:30am 27.0 - - - - SSE 2 6 1 3 1009.6 - -
21/04:00am 27.3 - - - - CALM 0 4 0 2 1009.4 1009.3 -
21/03:30am 27.4 - - - - CALM 0 2 0 1 1009.4 - -
21/03:00am 27.8 - - - - CALM 0 4 0 2 1009.4 1009.3 -
21/02:30am 27.8 - - - - CALM 0 0 0 0 1009.3 - -
21/02:00am 27.8 - - - - CALM 0 0 0 0 1009.4 1009.3 -
21/01:30am 28.0 - - - - CALM 0 0 0 0 1009.4 - -
21/01:00am 28.1 - - - - NW 2 4 1 2 1009.5 1009.4 -
21/12:30am 27.6 - - - - NW 4 6 2 3 1009.7 - -
21/12:00am 27.3 - - - - N 7 9 4 5 1009.8 1009.7 -
 
Date/Time
WST
Temp
°C
App
Temp
°C
Dew
Point
Rel
Hum
%
Delta-T
°C
Wind Press
QNH
hPa
Press
MSL
hPa
Rain
since 9 am
mm
Dir
 
Spd
km/h
Gust
km/h
Spd
kts
Gust
kts
20/11:30pm 29.0 - - - - NNW 6 9 3 5 1009.8 - -
20/11:00pm 29.3 - - - - NNW 13 15 7 8 1009.9 1009.8 -
20/10:30pm 30.2 - - - - NW 15 15 8 8 1009.9 - -
20/10:00pm 29.4 - - - - NW 11 13 6 7 1010.0 1009.9 -
20/09:30pm 28.8 - - - - WNW 11 15 6 8 1010.2 - -
20/09:00pm 29.3 - - - - WNW 13 13 7 7 1010.3 1010.2 -
20/08:30pm 29.4 - - - - NW 7 11 4 6 1010.2 - -

Other Formats:

Comma delimited format used in spreadsheet applications
http://www.bom.gov.au/fwo/IDW60801/IDW60801.95202.axf

JavaScript Object Notation format (JSON) in row-major order
http://www.bom.gov.au/fwo/IDW60801/IDW60801.95202.json